KSAN

San Diego International Airport

San Diego, California, USA
METAR KSAN 220151Z 28005KT 10SM FEW008 BKN015 BKN028 17/12 A2991 RMK AO2 SLP127 T01670117
Observed Flight Rules
May-22 @ 01:51 UTC (49 minutes ago) Marginal Visual Flight Rules
Wind Visibility Clouds
280° at 5 knots 10 miles
  • Few at 800' AGL
  • Broken at 1,500' AGL
  • Broken at 2,800' AGL
Temperatures Readings
Current 17°C / 63°F
Dewpoint 12°C / 54°F
Humidity 73%
Altimeter 29.91" Hg
Pressure 1012.7 hPa
Elevation 12
METAR KSAN 220151Z 28005KT 10SM FEW008 BKN015 BKN028 17/12 A2991 RMK AO2 SLP127 T01670117
Observed Flight Rules
May-22 @ 01:51 UTC
(49 minutes ago)
MVFR
Wind Visibility
280° at 5 knots 10 miles
Clouds
  • Few at 800' AGL
  • Broken at 1,500' AGL
  • Broken at 2,800' AGL
Temperature Dewpoint
17°C / 63°F 12°C / 54°F
Humidity Altimeter Pressure
73% 29.91" Hg 1012.7 hPa